Wild Boar Gully, Santa Catalina Island Weather observations

Data are for 10 minute period ending at time listed.
 Day   Time   Solar   Ave.   Ave.  Ave.  Vector    Max.   Stn.    Total
  of    of     Rad.   Air    Rel.  Wind   Wind     Wind   Baro.  Precip.
Year   Day            Temp.  Hum.  Speed  Dir.     Gust   Pres.         
2016   (PST)   W/m2    F      %     mph   deg.      mph    mb.     in.  
------------------------------------------------------------------------
 270   11:20  652.0    95   13.9     4    207.1     6.0    999.0   0.00  
 270   11:30  655.0    94   15.0     4    230.3     7.2    999.0   0.00  
 270   11:40  657.0    94   14.4     6    223.9     9.6    999.0   0.00  
 270   11:50  658.0    92   14.7     6    232.7     9.6    999.0   0.00  
 270   12:00  657.0    93   14.5     5    228.0     7.2    999.0   0.00  
 270   12:10  655.0    95   13.8     6    228.2     7.8    999.0   0.00  
 270   12:20  652.0    95   13.8     6    229.2     8.4    999.0   0.00  
 270   12:30  647.0    94   13.8     6    232.7     8.4    999.0   0.00  
 270   12:40  642.0    95   14.1     6    232.7     9.0    999.0   0.00  
 270   12:50  636.0    95   14.0     6    229.5     8.4    999.0   0.00  
 270   13:00  630.0    95   14.0     7    238.4    10.2    999.0   0.00  
 270   13:10  603.0    96   14.3     7    236.9     9.0    999.0   0.00  
 270   13:20  612.0    96   14.5     6    246.6     9.0    999.0   0.00  
 270   13:30  621.0    97   13.5     4    265.0     6.6    999.0   0.00  
 270   13:40  559.0    96   14.4     5    222.5     7.8    999.0   0.00  
 270   13:50  497.0    95   15.5     4    219.5     6.0    999.0   0.00  
 270   14:00  581.0    96   13.5     4    222.6     7.2    999.0   0.00  
 270   14:10  345.0    97   12.5     4    239.1     7.2    999.0   0.00  
 270   14:20  306.0    94   14.1     4    235.1     6.6    999.0   0.00  
 270   14:30  500.0    96   14.0     5    235.1     8.4    999.0   0.00  
 270   14:40  582.0    96   14.0     5    238.8     7.8    999.0   0.00  
 270   14:50  449.0    97   12.9     6    235.6     7.8    999.0   0.00  
 270   15:00  254.0    95   13.9     6    246.4     7.8    999.0   0.00  
 270   15:10  267.0    95   13.6     5    221.8     8.4    999.0   0.00  
 270   15:20  238.0    94   13.5     5    212.1     7.8    999.0   0.00  
 270   15:30  196.0    94   13.5     4    189.7     6.0    999.0   0.00  
 270   15:40  222.0    94   13.7     4    142.5    12.5    999.0   0.00  
 270   15:50  222.0    94   13.8     4    238.5     7.2    999.0   0.00  
 270   16:00  280.0    94   13.4     5    242.1     8.4    999.0   0.00  
 270   16:10  298.0    95   13.1     5    250.8     7.2    999.0   0.00  
 270   16:20  227.0    95   13.2     5    247.0     6.6    999.0   0.00  
 270   16:30  134.0    94   13.7     5    239.5     6.6    999.0   0.00  
 270   16:40   82.0    92   14.2     5    249.7     8.4    999.0   0.00  
 270   16:50   63.0    92   14.5     6    275.6     7.8    999.0   0.00  
 270   17:00   51.0    91   14.5     5    270.9     7.2    999.0   0.00  
 270   17:10   59.0    91   14.4     5    275.2     6.6    999.0   0.00  
 270   17:20   48.0    91   14.4     5    278.7     6.6    999.0   0.00  
 270   17:30   41.0    91   14.4     6    280.8     7.8    999.0   0.00  
 270   17:40   22.0    91   14.7     6    284.1     7.2    999.0   0.00  
 270   17:50   10.0    90   15.1     4    299.4     5.4    999.0   0.00  
 270   18:00    6.0    89   15.5     4    313.8     5.4    999.0   0.00  
 270   18:10    0.0    88   16.3     3    322.7     6.6    999.0   0.00  
 270   18:20    0.0    88   16.0     5    323.6     8.4    999.0   0.00  
 270   18:30    0.0    87   16.6     5    337.0     7.2    999.0   0.00  
 270   18:40    0.0    88   16.1     6    318.5     9.0    999.0   0.00  
 270   18:50    0.0    88   16.1     6    318.2     7.8    999.0   0.00  
 270   19:00    0.0    87   16.5     5    325.3     7.8    999.0   0.00  
 270   19:10    0.0    88   16.2     6    315.8     9.6    999.0   0.00  
 270   19:20    0.0    89   15.9     8    313.3    10.8    999.0   0.00  
 270   19:30    0.0    88   16.0     7    325.4     9.6    999.0   0.00  
 270   19:40    0.0    86   16.7     8    357.6    11.9    999.0   0.00  
 270   19:50    0.0    86   15.9    10    358.5    13.1    999.0   0.00  
 270   20:00    0.0    85   16.2     7      1.1     9.0    999.0   0.00  
 270   20:10    0.0    85   16.2     6      8.9     9.6    999.0   0.00  
 270   20:20    0.0    85   16.0     8     22.2    13.1    999.0   0.00  
 270   20:30    0.0    86   16.1     9     16.6    13.1    999.0   0.00  
 270   20:40    0.0    86   16.0    11     13.0    14.9    999.0   0.00  
 270   20:50    0.0    86   16.1    12     11.8    14.9    999.0   0.00  
 270   21:00    0.0    86   16.5    11     13.2    14.9    999.0   0.00  
 270   21:10    0.0    86   16.4    12      8.5    15.5    999.0   0.00  
 270   21:20    0.0    87   16.1    12      8.5    16.1    999.0   0.00  
 270   21:30    0.0    86   16.2    11      8.8    13.7    999.0   0.00  
 270   21:40    0.0    87   16.2    11      4.8    13.1    999.0   0.00  
 270   21:50    0.0    87   16.0    11      1.4    13.7    999.0   0.00  
 270   22:00    0.0    88   15.2    11    352.1    13.7    999.0   0.00  
 270   22:10    0.0    89   14.6    11    346.2    13.1    999.0   0.00  
 270   22:20    0.0    89   14.6    11    347.3    13.1    999.0   0.00  
 270   22:30    0.0    89   14.3    10    339.9    13.1    999.0   0.00  
 270   22:40    0.0    89   13.8    10    331.7    12.5    999.0   0.00  
 270   22:50    0.0    89   13.6     9    332.5    11.9    999.0   0.00  
 270   23:00    0.0    89   13.9     8    334.8    11.3    999.0   0.00  
 270   23:10    0.0    89   13.8     8    328.2    11.3    999.0   0.00  
 270   23:20    0.0    89   13.5     8    321.3    10.8    999.0   0.00  
 270   23:30    0.0    90   13.5     8    317.2    10.8    999.0   0.00  
 270   23:40    0.0    90   13.4     9    311.4    11.9    999.0   0.00  
 270   23:50    0.0    90   13.2    10    306.3    13.1    999.0   0.00  
 271    0:00    0.0    90   13.1    10    306.6    13.1    999.0   0.00  
 271    0:10    0.0    90   13.2     8    310.4    11.3    999.0   0.00  
 271    0:20    0.0    90   13.4     7    315.3    10.8    999.0   0.00  
 271    0:30    0.0    89   13.4     7    316.9     9.6    999.0   0.00  
 271    0:40    0.0    89   13.7     6    322.0    10.2    999.0   0.00  
 271    0:50    0.0    89   13.8     7    323.7     9.6    999.0   0.00  
 271    1:00    0.0    88   14.2     6    334.7     9.0    999.0   0.00  
 271    1:10    0.0    87   14.7     5    336.1     7.2    999.0   0.00  
 271    1:20    0.0    87   14.7     4    332.3     7.2    999.0   0.00  
 271    1:30    0.0    85   16.1     3     52.6     9.0    999.0   0.00  
 271    1:40    0.0    80   29.0     8    110.9    11.3    999.0   0.00  
 271    1:50    0.0    78   33.1     7    113.4    10.2    999.0   0.00  
 271    2:00    0.0    78   37.6     8     98.4    10.8    999.0   0.00  
 271    2:10    0.0    79   31.3     5     97.9     7.8    999.0   0.00  
 271    2:20    0.0    82   22.7     4    122.0     6.0    999.0   0.00  
 271    2:30    0.0    83   22.0     3    100.8     4.2    999.0   0.00  
 271    2:40    0.0    83   21.1     4     95.4     4.8    999.0   0.00  
 271    2:50    0.0    83   20.2     4     92.5     6.6    999.0   0.00  
 271    3:00    0.0    82   20.2     6     92.9     7.2    999.0   0.00  
 271    3:10    0.0    83   19.0     5     71.7     7.8    999.0   0.00  
 271    3:20    0.0    82   18.5     3     90.8     4.2    999.0   0.00  
 271    3:30    0.0    82   19.2     5     83.5     6.6    999.0   0.00  
 271    3:40    0.0    82   19.3     6     71.2     7.2    999.0   0.00  
 271    3:50    0.0    82   19.5     6     79.2     7.8    999.0   0.00  
 271    4:00    0.0    84   17.9     7     66.1     9.0    999.0   0.00  
 271    4:10    0.0    83   18.3     6     77.9     7.2    999.0   0.00  
 271    4:20    0.0    83   18.0     8     76.6    10.2    999.0   0.00  
 271    4:30    0.0    84   17.2     8     73.5     9.6    999.0   0.00  
 271    4:40    0.0    84   17.9     8     70.5     9.6    999.0   0.00  
 271    4:50    0.0    84   18.7    10     73.1    11.9    999.0   0.00  
 271    5:00    0.0    83   21.3    10     78.7    11.9    999.0   0.00  
 271    5:10    0.0    83   23.3    10     69.7    12.5    999.0   0.00  
 271    5:20    0.0    83   26.4     9     64.7    11.9    999.0   0.00  
 271    5:30    0.0    83   24.6     8     65.4     9.6    999.0   0.00  
 271    5:40    0.0    83   25.7     8     67.2    10.2    999.0   0.00  
 271    5:50    1.0    83   25.1     7     70.8     9.6    999.0   0.00  
 271    6:00    4.0    83   25.8     9     65.5    10.8    999.0   0.00  
 271    6:10    9.0    82   28.1     9     75.1    11.9    999.0   0.00  
 271    6:20   19.0    82   30.7     8     59.9    10.8    999.0   0.00  
 271    6:30   35.0    83   28.8     8     67.3    10.2    999.0   0.00  
 271    6:40   37.0    84   27.2     8     61.9     9.0    999.0   0.00  
 271    6:50   42.0    84   28.1     8     64.3     9.6    999.0   0.00  
 271    7:00   59.0    84   28.5     7     72.1     9.0    999.0   0.00  
 271    7:10   63.0    84   28.7     6     82.9     8.4    999.0   0.00  
 271    7:20   70.0    84   28.3     7     61.7     9.0    999.0   0.00  
 271    7:30   82.0    85   28.2     7     69.4     9.0    999.0   0.00  
 271    7:40   92.0    85   28.5     7     73.8     9.6    999.0   0.00  
 271    7:50  123.0    86   28.5     6     81.4     9.0    999.0   0.00  
 271    8:00  144.0    85   28.8     7     98.8    11.3    999.0   0.00  
 271    8:10  133.0    85   28.9     7     93.4    11.3    999.0   0.00  
 271    8:20  149.0    85   29.0     8     79.9    13.1    999.0   0.00  
 271    8:30  259.0    85   28.3     9     79.1    13.7    999.0   0.00  
 271    8:40  217.0    85   28.0    10     87.5    15.5    999.0   0.00  
 271    8:50  321.0    85   28.8     9     91.2    13.7    999.0   0.00  
 271    9:00  452.0    86   28.7    10     94.9    16.1    999.0   0.00  
 271    9:10  464.0    86   28.7    10     95.6    17.9    999.0   0.00  
 271    9:20  481.0    86   29.7    10    109.1    16.7    999.0   0.00  
 271    9:30  500.0    86   30.1     9     94.7    15.5    999.0   0.00  
 271    9:40  520.0    86   29.7    10     99.1    16.7    999.0   0.00  
 271    9:50  541.0    85   30.8    10    105.3    15.5    999.0   0.00  
 271   10:00  568.0    86   30.7     8    102.5    13.1    999.0   0.00  
 271   10:10  596.0    85   32.0    10    119.0    15.5    999.0   0.00  
 271   10:20  544.0    84   33.0     9    112.8    13.7    999.0   0.00  
 271   10:30  545.0    84   33.8     9     97.6    13.1    999.0   0.00  
 271   10:40  472.0    84   34.0     8    102.9    12.5    999.0   0.00  
 271   10:50  515.0    83   34.8     8    105.3    13.7    999.0   0.00  
 271   11:00  615.0    84   34.5     8    103.8    14.3    999.0   0.00  
 271   11:10  620.0    84   34.5     8    111.2    13.1    999.0   0.00  

Return to Wild Boar Gully graphs page.


Western Regional Climate Center,wrcc@dri.edu